METAR Data
IDs: Format: Raw Decoded Include TAF

Data at: 1455 UTC 25 Jan 2020

METAR for:KDBQ (Dubuque Rgnl, IA, US)
Text:KDBQ 251453Z 29012KT 5SM BR OVC008 M01/M01 A2987 RMK AO2 SLP126 T10061006 51012 $
Temperature: -0.6°C ( 31°F)
Dewpoint: -0.6°C ( 31°F) [RH = 100%]
Pressure (altimeter):29.87 inches Hg (1011.6 mb) [Sea level pressure: 1012.6 mb]
Winds:from the WNW (290 degrees) at 14 MPH (12 knots; 6.2 m/s)
Visibility: 5 sm ( 8 km)
Ceiling:800 feet AGL
Clouds: overcast cloud deck at 800 feet AGL
Weather:BR (mist)
QC Flag:SOME DATA ABOVE MAY BE INACCURATE!!!"$" is an indication the sensor requires maintenance.